createdAt,value
2018-03-04T00:01:47.043Z,8.26
2018-03-04T00:04:14.488Z,8.33
2018-03-04T00:06:41.974Z,8.35
2018-03-04T00:09:09.416Z,8.30
2018-03-04T00:11:36.921Z,8.26
2018-03-04T00:14:04.376Z,8.29
2018-03-04T00:16:31.823Z,8.31
2018-03-04T00:18:59.284Z,8.38
2018-03-04T00:21:26.801Z,8.43
2018-03-04T00:23:54.266Z,8.51
2018-03-04T00:26:21.951Z,8.56
2018-03-04T00:28:49.464Z,8.61
2018-03-04T00:31:16.917Z,8.61
2018-03-04T00:33:44.396Z,8.61
2018-03-04T00:36:11.833Z,8.41
2018-03-04T00:38:39.334Z,7.97
2018-03-04T00:41:06.803Z,8.19
2018-03-04T00:43:34.419Z,8.36
2018-03-04T00:46:01.887Z,8.32
2018-03-04T00:48:29.329Z,8.48
2018-03-04T00:50:56.798Z,8.57
2018-03-04T00:53:24.263Z,8.68
2018-03-04T00:55:51.733Z,8.75
2018-03-04T00:58:19.182Z,8.81
2018-03-04T01:00:46.629Z,8.79
2018-03-04T01:03:14.090Z,8.80
2018-03-04T01:05:41.569Z,8.79
2018-03-04T01:08:09.025Z,8.88
2018-03-04T01:10:36.463Z,8.94
2018-03-04T01:13:04.053Z,8.99
2018-03-04T01:15:32.108Z,8.81
2018-03-04T01:17:59.565Z,8.29
2018-03-04T01:20:27.073Z,8.01
2018-03-04T01:22:54.726Z,8.01
2018-03-04T01:25:22.171Z,8.12
2018-03-04T01:27:49.820Z,7.92
2018-03-04T01:30:17.305Z,7.75
2018-03-04T01:32:44.787Z,7.75
2018-03-04T01:35:12.277Z,7.75
2018-03-04T01:37:39.708Z,7.82
2018-03-04T01:40:07.157Z,7.88
2018-03-04T01:42:34.602Z,7.83
2018-03-04T01:45:02.065Z,7.90
2018-03-04T01:47:30.361Z,7.95
2018-03-04T01:49:57.845Z,7.91
2018-03-04T01:52:25.289Z,7.79
2018-03-04T01:54:52.728Z,7.84
2018-03-04T01:57:20.186Z,7.73
2018-03-04T01:59:47.697Z,7.58
2018-03-04T02:02:15.179Z,6.99
2018-03-04T02:04:42.669Z,6.95
2018-03-04T02:07:10.130Z,7.01
2018-03-04T02:09:37.656Z,7.13
2018-03-04T02:12:05.153Z,7.29
2018-03-04T02:14:33.194Z,7.38
2018-03-04T02:17:00.705Z,7.40
2018-03-04T02:19:28.413Z,7.41
2018-03-04T02:21:55.897Z,7.44
2018-03-04T02:24:23.383Z,7.37
2018-03-04T02:26:50.848Z,7.24
2018-03-04T02:29:18.325Z,7.20
2018-03-04T02:31:45.782Z,7.25
2018-03-04T02:34:13.276Z,7.26
2018-03-04T02:36:40.729Z,7.28
2018-03-04T02:39:08.207Z,7.26
2018-03-04T02:41:35.673Z,7.33
2018-03-04T02:44:03.247Z,7.32
2018-03-04T02:46:30.801Z,7.27
2018-03-04T02:48:58.287Z,7.27
2018-03-04T02:51:25.831Z,7.27
2018-03-04T02:53:53.272Z,7.30
2018-03-04T02:56:20.766Z,7.28
2018-03-04T02:58:48.199Z,7.31
2018-03-04T03:01:15.693Z,7.35
2018-03-04T03:03:43.146Z,7.34
2018-03-04T03:06:10.575Z,7.32
2018-03-04T03:08:38.109Z,7.29
2018-03-04T03:11:05.548Z,7.24
2018-03-04T03:13:34.311Z,7.23
2018-03-04T03:16:01.835Z,7.25
2018-03-04T03:18:29.416Z,7.31
2018-03-04T03:20:56.936Z,7.33
2018-03-04T03:23:24.366Z,7.30
2018-03-04T03:25:52.526Z,7.27
2018-03-04T03:28:19.989Z,7.23
2018-03-04T03:30:47.462Z,7.09
2018-03-04T03:33:14.922Z,6.91
2018-03-04T03:35:42.398Z,6.77
2018-03-04T03:38:09.846Z,6.75
2018-03-04T03:40:37.354Z,6.74
2018-03-04T03:43:04.794Z,6.72
2018-03-04T03:45:32.268Z,6.66
2018-03-04T03:47:59.718Z,6.64
2018-03-04T03:50:27.313Z,6.52
2018-03-04T03:52:54.812Z,6.50
2018-03-04T03:55:22.301Z,6.42
2018-03-04T03:57:49.769Z,6.34
2018-03-04T04:00:17.242Z,6.36
2018-03-04T04:02:44.724Z,6.35
2018-03-04T04:05:12.198Z,6.37
2018-03-04T04:07:39.691Z,6.40
2018-03-04T04:10:07.227Z,6.34
2018-03-04T04:12:34.698Z,6.33
2018-03-04T04:15:02.219Z,6.31
2018-03-04T04:17:29.681Z,6.33
2018-03-04T04:19:57.145Z,6.37
2018-03-04T04:22:24.591Z,6.32
2018-03-04T04:24:52.059Z,6.27
2018-03-04T04:27:19.516Z,6.17
2018-03-04T04:29:46.993Z,6.18
2018-03-04T04:32:14.438Z,6.18
2018-03-04T04:34:41.974Z,6.15
2018-03-04T04:37:09.460Z,6.09
2018-03-04T04:39:36.902Z,5.95
2018-03-04T04:42:04.387Z,5.82
2018-03-04T04:44:31.849Z,5.78
2018-03-04T04:46:59.885Z,5.82
2018-03-04T04:49:27.444Z,5.87
2018-03-04T04:51:54.908Z,5.76
2018-03-04T04:54:22.506Z,5.79
2018-03-04T04:56:50.045Z,5.82
2018-03-04T04:59:17.620Z,5.82
2018-03-04T05:01:45.088Z,5.80
2018-03-04T05:04:12.590Z,5.77
2018-03-04T05:06:40.024Z,5.75
2018-03-04T05:09:07.500Z,5.69
2018-03-04T05:11:34.951Z,5.63
2018-03-04T05:14:02.386Z,5.58
2018-03-04T05:16:29.891Z,5.52
2018-03-04T05:18:57.361Z,5.47
2018-03-04T05:21:24.838Z,5.42
2018-03-04T05:23:53.050Z,5.32
2018-03-04T05:26:20.519Z,5.29
2018-03-04T05:28:48.417Z,5.31
2018-03-04T05:31:15.890Z,5.36
2018-03-04T05:33:43.337Z,5.36
2018-03-04T05:36:10.812Z,5.40
2018-03-04T05:38:38.318Z,5.41
2018-03-04T05:41:05.815Z,5.31
2018-03-04T05:43:33.308Z,5.31
2018-03-04T05:46:00.769Z,5.30
2018-03-04T05:48:28.315Z,5.30
2018-03-04T05:50:55.768Z,5.28
2018-03-04T05:53:23.228Z,5.30
2018-03-04T05:55:50.687Z,5.28
2018-03-04T05:58:18.210Z,5.13
2018-03-04T06:00:45.696Z,5.01
2018-03-04T06:03:13.123Z,4.95
2018-03-04T06:05:40.611Z,4.99
2018-03-04T06:08:08.140Z,5.04
2018-03-04T06:10:35.605Z,5.06
2018-03-04T06:13:03.030Z,5.09
2018-03-04T06:15:30.611Z,5.12
2018-03-04T06:17:58.041Z,5.14
2018-03-04T06:20:25.506Z,5.13
2018-03-04T06:22:52.954Z,5.02
2018-03-04T06:25:20.426Z,5.13
2018-03-04T06:27:50.448Z,5.20
2018-03-04T06:30:17.952Z,5.25
2018-03-04T06:32:45.379Z,5.30
2018-03-04T06:35:12.805Z,5.39
2018-03-04T06:37:40.975Z,5.43
2018-03-04T06:40:08.422Z,5.42
2018-03-04T06:42:35.889Z,5.48
2018-03-04T06:45:03.373Z,5.58
2018-03-04T06:47:30.855Z,5.67
2018-03-04T06:49:58.305Z,5.67
2018-03-04T06:52:25.751Z,5.70
2018-03-04T06:54:53.718Z,5.58
2018-03-04T06:57:21.193Z,5.75
2018-03-04T06:59:48.755Z,6.24
2018-03-04T07:02:16.297Z,7.26
2018-03-04T07:04:43.957Z,8.26
2018-03-04T07:07:11.507Z,9.09
2018-03-04T07:09:38.996Z,9.96
2018-03-04T07:12:06.476Z,10.66
2018-03-04T07:14:33.949Z,11.28
2018-03-04T07:17:01.424Z,11.94
2018-03-04T07:19:29.795Z,12.53
2018-03-04T07:21:57.259Z,13.06
2018-03-04T07:24:24.748Z,13.53
2018-03-04T07:26:52.193Z,13.87
2018-03-04T07:29:19.675Z,14.10
2018-03-04T07:31:47.168Z,14.65
2018-03-04T07:34:14.628Z,15.15
2018-03-04T07:36:42.110Z,15.70
2018-03-04T07:39:09.666Z,16.04
2018-03-04T07:41:37.156Z,16.57
2018-03-04T07:44:04.619Z,16.99
2018-03-04T07:46:32.062Z,17.28
2018-03-04T07:48:59.604Z,17.64
2018-03-04T07:51:27.136Z,18.02
2018-03-04T07:53:54.642Z,18.37
2018-03-04T07:56:22.132Z,18.55
2018-03-04T07:58:49.618Z,18.81
2018-03-04T08:01:17.092Z,19.09
2018-03-04T08:03:44.567Z,19.29
2018-03-04T08:06:12.031Z,19.63
2018-03-04T08:08:39.486Z,19.93
2018-03-04T08:11:06.964Z,20.08
2018-03-04T08:13:34.542Z,20.23
2018-03-04T08:16:02.135Z,20.60
2018-03-04T08:18:29.879Z,20.88
2018-03-04T08:20:57.341Z,20.60
2018-03-04T08:23:25.050Z,20.63
2018-03-04T08:25:53.844Z,20.80
2018-03-04T08:28:30.117Z,20.66
2018-03-04T08:30:57.667Z,20.61
2018-03-04T08:33:25.107Z,20.88
2018-03-04T08:35:52.567Z,21.11
2018-03-04T08:38:20.029Z,21.26
2018-03-04T08:40:47.470Z,21.32
2018-03-04T08:43:15.035Z,21.37
2018-03-04T08:45:42.495Z,21.99
2018-03-04T08:48:09.974Z,22.27
2018-03-04T08:50:37.575Z,22.95
2018-03-04T08:53:05.098Z,23.09
2018-03-04T08:55:32.545Z,21.73
2018-03-04T08:57:59.995Z,21.17
2018-03-04T09:00:27.468Z,21.63
2018-03-04T09:02:55.221Z,22.00
2018-03-04T09:05:22.962Z,22.72
2018-03-04T09:07:51.228Z,22.90
2018-03-04T09:10:18.843Z,23.41
2018-03-04T09:12:46.904Z,24.33
2018-03-04T09:15:14.372Z,25.10
2018-03-04T09:17:41.852Z,25.40
2018-03-04T09:20:09.340Z,25.96
2018-03-04T09:22:37.104Z,26.60
2018-03-04T09:25:04.625Z,27.37
2018-03-04T09:27:32.061Z,27.71
2018-03-04T09:29:59.583Z,27.96
2018-03-04T09:32:27.311Z,28.53
2018-03-04T09:34:54.776Z,28.93
2018-03-04T09:37:22.290Z,29.08
2018-03-04T09:39:49.734Z,29.38
2018-03-04T09:42:17.218Z,29.38
2018-03-04T09:44:44.665Z,29.46
2018-03-04T09:47:12.177Z,29.53
2018-03-04T09:49:39.622Z,29.43
2018-03-04T09:52:07.061Z,29.96
2018-03-04T09:54:34.569Z,30.41
2018-03-04T09:57:02.044Z,30.60
2018-03-04T09:59:29.702Z,31.33
2018-03-04T10:01:57.266Z,32.14
2018-03-04T10:04:24.815Z,32.36
2018-03-04T10:06:52.288Z,32.65
2018-03-04T10:09:19.737Z,32.40
2018-03-04T10:11:47.224Z,32.39
2018-03-04T10:14:14.686Z,32.90
2018-03-04T10:16:42.153Z,33.49
2018-03-04T10:19:09.605Z,33.99
2018-03-04T10:21:37.068Z,33.97
2018-03-04T10:24:04.530Z,34.88
2018-03-04T10:26:32.009Z,34.67
2018-03-04T10:28:59.458Z,35.18
2018-03-04T10:31:26.926Z,35.01
2018-03-04T10:33:54.373Z,34.96
2018-03-04T10:36:21.799Z,34.58
2018-03-04T10:38:49.275Z,34.28
2018-03-04T10:41:16.807Z,34.52
2018-03-04T10:43:44.295Z,35.36
2018-03-04T10:46:11.737Z,36.03
2018-03-04T10:48:39.200Z,36.35
2018-03-04T10:51:06.663Z,36.79
2018-03-04T10:53:34.101Z,36.77
2018-03-04T10:56:01.554Z,36.71
2018-03-04T10:58:28.996Z,36.78
2018-03-04T11:00:57.448Z,36.60
2018-03-04T11:03:25.018Z,36.68
2018-03-04T11:05:52.605Z,36.74
2018-03-04T11:08:20.285Z,36.88
2018-03-04T11:10:47.809Z,37.51
2018-03-04T11:13:15.370Z,37.32
2018-03-04T11:15:42.965Z,37.39
2018-03-04T11:18:10.572Z,37.70
2018-03-04T11:20:38.137Z,37.99
2018-03-04T11:23:05.607Z,37.98
2018-03-04T11:25:33.082Z,38.30
2018-03-04T11:28:00.578Z,38.31
2018-03-04T11:30:28.202Z,38.30
2018-03-04T11:32:55.686Z,38.72
2018-03-04T11:35:23.136Z,38.80
2018-03-04T11:37:50.590Z,38.78
2018-03-04T11:40:18.058Z,38.86
2018-03-04T11:42:45.527Z,39.02
2018-03-04T11:45:12.985Z,38.78
2018-03-04T11:47:40.494Z,39.51
2018-03-04T11:50:07.972Z,40.14
2018-03-04T11:52:35.476Z,39.41
2018-03-04T11:55:03.068Z,39.31
2018-03-04T11:57:30.503Z,38.97
2018-03-04T11:59:58.060Z,38.69
2018-03-04T12:02:25.573Z,39.17
2018-03-04T12:04:53.007Z,38.70
2018-03-04T12:07:20.640Z,38.50
2018-03-04T12:09:48.128Z,38.62
2018-03-04T12:12:15.568Z,38.74
2018-03-04T12:14:43.135Z,39.01
2018-03-04T12:17:10.488Z,38.26
2018-03-04T12:19:38.571Z,37.83
2018-03-04T12:22:06.017Z,37.97
2018-03-04T12:24:33.571Z,37.78
2018-03-04T12:27:01.057Z,37.92
2018-03-04T12:29:28.549Z,36.84
2018-03-04T12:31:56.020Z,37.70
2018-03-04T12:34:23.459Z,37.76
2018-03-04T12:36:50.923Z,36.75
2018-03-04T12:39:18.366Z,36.26
2018-03-04T12:41:45.839Z,35.63
2018-03-04T12:44:13.278Z,34.67
2018-03-04T12:46:40.877Z,32.60
2018-03-04T12:49:08.369Z,30.56
2018-03-04T12:51:35.817Z,29.17
2018-03-04T12:54:03.894Z,28.56
2018-03-04T12:56:31.318Z,29.41
2018-03-04T12:58:58.804Z,29.99
2018-03-04T13:01:26.263Z,29.54
2018-03-04T13:03:53.754Z,28.76
2018-03-04T13:06:21.195Z,28.14
2018-03-04T13:08:48.662Z,27.48
2018-03-04T13:11:16.087Z,25.85
2018-03-04T13:13:43.537Z,24.84
2018-03-04T13:16:10.996Z,23.97
2018-03-04T13:18:38.736Z,23.37
2018-03-04T13:21:06.198Z,23.16
2018-03-04T13:23:33.679Z,23.00
2018-03-04T13:26:02.150Z,23.03
2018-03-04T13:28:29.622Z,23.21
2018-03-04T13:30:57.122Z,23.36
2018-03-04T13:33:24.599Z,23.29
2018-03-04T13:35:52.044Z,22.65
2018-03-04T13:38:19.842Z,22.01
2018-03-04T13:40:47.596Z,21.68
2018-03-04T13:43:15.465Z,21.64
2018-03-04T13:45:43.310Z,21.49
2018-03-04T13:48:10.824Z,21.48
2018-03-04T13:50:38.268Z,21.80
2018-03-04T13:53:06.292Z,22.43
2018-03-04T13:55:33.717Z,23.24
2018-03-04T13:58:01.183Z,23.84
2018-03-04T14:00:28.676Z,23.36
2018-03-04T14:02:56.966Z,23.21
2018-03-04T14:05:24.435Z,23.08
2018-03-04T14:07:51.923Z,23.10
2018-03-04T14:10:19.405Z,22.39
2018-03-04T14:12:46.854Z,22.27
2018-03-04T14:15:14.349Z,22.13
2018-03-04T14:17:41.805Z,21.92
2018-03-04T14:20:09.261Z,21.76
2018-03-04T14:22:36.678Z,21.20
2018-03-04T14:25:04.160Z,20.70
2018-03-04T14:27:31.744Z,19.63
2018-03-04T14:29:59.187Z,19.03
2018-03-04T14:32:26.660Z,18.55
2018-03-04T14:34:54.405Z,18.08
2018-03-04T14:37:21.932Z,17.77
2018-03-04T14:39:49.351Z,17.66
2018-03-04T14:42:16.945Z,17.52
2018-03-04T14:44:44.413Z,17.66
2018-03-04T14:47:11.863Z,17.51
2018-03-04T14:49:39.476Z,17.18
2018-03-04T14:52:07.024Z,16.93
2018-03-04T14:54:34.573Z,16.84
2018-03-04T14:57:02.065Z,16.73
2018-03-04T14:59:29.603Z,16.71
2018-03-04T15:01:57.869Z,16.67
2018-03-04T15:04:25.327Z,16.55
2018-03-04T15:06:52.815Z,16.45
2018-03-04T15:09:21.217Z,16.41
2018-03-04T15:11:48.742Z,16.30
2018-03-04T15:14:16.264Z,16.27
2018-03-04T15:16:43.768Z,16.40
2018-03-04T15:19:11.308Z,16.40
2018-03-04T15:21:38.769Z,16.21
2018-03-04T15:24:06.183Z,16.09
2018-03-04T15:26:33.637Z,16.07
2018-03-04T15:29:01.137Z,15.91
2018-03-04T15:31:28.638Z,15.81
2018-03-04T15:33:56.084Z,15.79
2018-03-04T15:36:23.624Z,15.75
2018-03-04T15:38:51.174Z,15.62
2018-03-04T15:41:18.775Z,15.72
2018-03-04T15:43:46.345Z,15.75
2018-03-04T15:46:13.817Z,15.74
2018-03-04T15:48:41.262Z,15.72
2018-03-04T15:51:08.694Z,15.61
2018-03-04T15:53:36.181Z,15.41
2018-03-04T15:56:03.616Z,15.33
2018-03-04T15:58:31.093Z,15.27
2018-03-04T16:00:58.545Z,15.23
2018-03-04T16:03:26.031Z,15.08
2018-03-04T16:05:53.496Z,14.95
2018-03-04T16:08:21.023Z,14.83
2018-03-04T16:10:48.609Z,14.67
2018-03-04T16:13:16.188Z,14.51
2018-03-04T16:15:43.663Z,14.37
2018-03-04T16:18:11.109Z,14.27
2018-03-04T16:20:38.571Z,14.19
2018-03-04T16:23:06.042Z,14.14
2018-03-04T16:25:33.495Z,14.09
2018-03-04T16:28:00.950Z,14.09
2018-03-04T16:30:28.431Z,14.15
2018-03-04T16:32:55.854Z,14.06
2018-03-04T16:35:27.501Z,13.95
2018-03-04T16:37:55.034Z,13.92
2018-03-04T16:40:22.593Z,13.80
2018-03-04T16:42:50.078Z,13.62
2018-03-04T16:45:17.566Z,13.49
2018-03-04T16:47:45.031Z,13.47
2018-03-04T16:50:12.531Z,13.48
2018-03-04T16:52:39.969Z,13.41
2018-03-04T16:55:07.463Z,13.52
2018-03-04T16:57:34.919Z,13.62
2018-03-04T17:00:02.456Z,13.61
2018-03-04T17:02:30.009Z,13.54
2018-03-04T17:04:57.587Z,13.35
2018-03-04T17:07:25.057Z,13.13
2018-03-04T17:09:52.526Z,12.99
2018-03-04T17:12:20.004Z,12.92
2018-03-04T17:14:47.459Z,12.92
2018-03-04T17:17:14.940Z,12.91
2018-03-04T17:19:42.461Z,12.93
2018-03-04T17:22:09.967Z,12.98
2018-03-04T17:24:37.732Z,12.98
2018-03-04T17:27:05.183Z,13.02
2018-03-04T17:29:32.825Z,13.21
2018-03-04T17:32:00.283Z,13.43
2018-03-04T17:34:27.748Z,13.53
2018-03-04T17:36:55.212Z,13.54
2018-03-04T17:39:22.696Z,13.56
2018-03-04T17:41:50.161Z,13.56
2018-03-04T17:44:17.608Z,13.45
2018-03-04T17:46:45.091Z,13.42
2018-03-04T17:49:12.571Z,13.40
2018-03-04T17:51:40.186Z,13.38
2018-03-04T17:54:07.766Z,13.31
2018-03-04T17:56:35.353Z,13.23
2018-03-04T17:59:02.807Z,13.14
2018-03-04T18:01:30.321Z,13.13
2018-03-04T18:03:57.794Z,13.08
2018-03-04T18:06:25.244Z,13.16
2018-03-04T18:08:52.737Z,13.29
2018-03-04T18:11:20.171Z,13.36
2018-03-04T18:13:48.194Z,13.38
2018-03-04T18:16:15.639Z,13.36
2018-03-04T18:18:43.787Z,13.30
2018-03-04T18:21:14.826Z,13.02
2018-03-04T18:23:42.295Z,12.78
2018-03-04T18:26:09.757Z,12.58
2018-03-04T18:28:37.299Z,12.50
2018-03-04T18:31:04.888Z,12.55
2018-03-04T18:33:32.324Z,12.59
2018-03-04T18:35:59.816Z,12.72
2018-03-04T18:38:27.298Z,12.87
2018-03-04T18:40:54.874Z,12.98
2018-03-04T18:43:22.407Z,12.98
2018-03-04T18:45:50.126Z,12.84
2018-03-04T18:48:17.571Z,12.82
2018-03-04T18:50:45.176Z,12.77
2018-03-04T18:53:12.809Z,12.69
2018-03-04T18:55:40.357Z,12.59
2018-03-04T18:58:07.820Z,12.61
2018-03-04T19:00:35.305Z,12.70
2018-03-04T19:03:03.401Z,12.81
2018-03-04T19:05:30.888Z,12.88
2018-03-04T19:07:58.472Z,12.90
2018-03-04T19:10:25.937Z,12.97
2018-03-04T19:12:53.462Z,13.01
2018-03-04T19:15:20.960Z,13.03
2018-03-04T19:17:48.416Z,13.03
2018-03-04T19:20:15.922Z,13.05
2018-03-04T19:22:43.395Z,13.07
2018-03-04T19:25:10.848Z,13.07
2018-03-04T19:27:38.322Z,13.02
2018-03-04T19:30:05.943Z,12.95
2018-03-04T19:32:33.491Z,12.91
2018-03-04T19:35:00.945Z,11.93
2018-03-04T19:37:28.427Z,12.00
2018-03-04T19:39:55.970Z,12.23
2018-03-04T19:42:24.371Z,12.30
2018-03-04T19:44:51.839Z,12.43
2018-03-04T19:47:19.377Z,12.51
2018-03-04T19:49:46.879Z,12.58
2018-03-04T19:52:14.365Z,12.61
2018-03-04T19:54:41.840Z,12.64
2018-03-04T19:57:09.283Z,12.63
2018-03-04T19:59:36.787Z,12.60
2018-03-04T20:02:04.270Z,12.46
2018-03-04T20:04:31.738Z,12.34
2018-03-04T20:06:59.232Z,12.29
2018-03-04T20:09:26.717Z,12.19
2018-03-04T20:11:54.183Z,12.02
2018-03-04T20:14:21.689Z,12.13
2018-03-04T20:16:49.160Z,12.24
2018-03-04T20:19:16.646Z,12.26
2018-03-04T20:21:44.164Z,12.11
2018-03-04T20:24:11.622Z,12.08
2018-03-04T20:26:39.293Z,12.16
2018-03-04T20:29:06.812Z,12.17
2018-03-04T20:31:34.303Z,11.77
2018-03-04T20:34:01.908Z,11.83
2018-03-04T20:36:29.401Z,11.93
2018-03-04T20:38:56.860Z,12.04
2018-03-04T20:41:24.810Z,12.09
2018-03-04T20:43:52.358Z,12.08
2018-03-04T20:46:20.046Z,12.04
2018-03-04T20:48:47.617Z,11.90
2018-03-04T20:51:15.607Z,11.60
2018-03-04T20:53:43.134Z,11.47
2018-03-04T20:56:10.583Z,11.65
2018-03-04T20:58:38.273Z,11.77
2018-03-04T21:01:05.724Z,11.77
2018-03-04T21:03:34.087Z,11.86
2018-03-04T21:06:01.614Z,11.84
2018-03-04T21:08:29.314Z,11.85
2018-03-04T21:10:56.830Z,11.90
2018-03-04T21:13:24.387Z,11.90
2018-03-04T21:15:51.838Z,11.89
2018-03-04T21:18:19.443Z,12.05
2018-03-04T21:20:46.941Z,11.97
2018-03-04T21:23:14.383Z,11.91
2018-03-04T21:25:41.842Z,11.75
2018-03-04T21:28:09.309Z,11.50
2018-03-04T21:30:36.811Z,11.37
2018-03-04T21:33:04.260Z,11.28
2018-03-04T21:35:31.790Z,11.28
2018-03-04T21:37:59.227Z,11.24
2018-03-04T21:40:27.085Z,11.17
2018-03-04T21:42:54.676Z,11.21
2018-03-04T21:45:23.531Z,11.29
2018-03-04T21:47:51.027Z,11.39
2018-03-04T21:50:19.194Z,11.42
2018-03-04T21:52:47.153Z,11.49
2018-03-04T21:55:14.686Z,11.58
2018-03-04T21:57:42.152Z,11.58
2018-03-04T22:00:09.863Z,11.45
2018-03-04T22:02:37.484Z,11.54
2018-03-04T22:05:05.267Z,11.60
2018-03-04T22:07:33.133Z,11.63
2018-03-04T22:10:01.007Z,11.69
2018-03-04T22:12:28.575Z,11.76
2018-03-04T22:14:56.243Z,11.76
2018-03-04T22:17:23.721Z,11.76
2018-03-04T22:19:51.278Z,11.78
2018-03-04T22:22:19.864Z,11.76
2018-03-04T22:24:49.629Z,11.75
2018-03-04T22:27:25.189Z,11.54
2018-03-04T22:29:52.738Z,11.38
2018-03-04T22:32:27.228Z,11.34
2018-03-04T22:34:56.333Z,11.38
2018-03-04T22:37:24.398Z,11.40
2018-03-04T22:39:51.912Z,11.42
2018-03-04T22:42:20.508Z,11.46
2018-03-04T22:44:48.437Z,11.52
2018-03-04T22:47:15.990Z,11.50
2018-03-04T22:49:43.451Z,11.50
2018-03-04T22:52:15.820Z,11.41
2018-03-04T22:54:44.197Z,11.43
2018-03-04T22:59:55.401Z,11.40
2018-03-04T23:02:22.851Z,11.41
2018-03-04T23:04:50.316Z,11.33
2018-03-04T23:07:17.781Z,11.16
2018-03-04T23:09:45.258Z,11.16
2018-03-04T23:12:12.734Z,11.13
2018-03-04T23:14:40.211Z,10.94
2018-03-04T23:17:07.663Z,10.89
2018-03-04T23:19:35.141Z,10.92
2018-03-04T23:22:02.617Z,10.95
2018-03-04T23:24:30.061Z,11.00
2018-03-04T23:26:57.525Z,11.09
2018-03-04T23:29:24.968Z,11.15
2018-03-04T23:31:52.440Z,11.15
2018-03-04T23:34:19.966Z,11.04
2018-03-04T23:36:47.422Z,10.83
2018-03-04T23:39:15.630Z,10.62
2018-03-04T23:41:43.117Z,10.60
2018-03-04T23:44:10.693Z,10.66
2018-03-04T23:46:38.215Z,10.74
2018-03-04T23:49:05.741Z,10.75
2018-03-04T23:51:33.203Z,10.82
2018-03-04T23:54:00.660Z,10.87
2018-03-04T23:56:28.126Z,10.91
2018-03-04T23:58:55.625Z,10.97
